sensor_id;sensor_type;location;lat;lon;timestamp;temperature;humidity
64833;HTU21D;51290;45.060;38.948;2023-12-20T00:01:54;8.56;86.69
64833;HTU21D;51290;45.060;38.948;2023-12-20T00:04:20;8.51;86.67
64833;HTU21D;51290;45.060;38.948;2023-12-20T00:06:46;8.46;86.71
64833;HTU21D;51290;45.060;38.948;2023-12-20T00:09:12;8.45;86.78
64833;HTU21D;51290;45.060;38.948;2023-12-20T00:11:38;8.41;86.88
64833;HTU21D;51290;45.060;38.948;2023-12-20T00:14:04;8.41;86.99
64833;HTU21D;51290;45.060;38.948;2023-12-20T00:16:30;8.41;87.05
64833;HTU21D;51290;45.060;38.948;2023-12-20T00:18:57;8.42;87.08
64833;HTU21D;51290;45.060;38.948;2023-12-20T00:21:23;8.43;87.12
64833;HTU21D;51290;45.060;38.948;2023-12-20T00:23:49;8.45;87.18
64833;HTU21D;51290;45.060;38.948;2023-12-20T00:26:15;8.49;87.21
64833;HTU21D;51290;45.060;38.948;2023-12-20T00:28:41;8.56;87.20
64833;HTU21D;51290;45.060;38.948;2023-12-20T00:31:08;8.60;87.15
64833;HTU21D;51290;45.060;38.948;2023-12-20T00:33:34;8.65;87.11
64833;HTU21D;51290;45.060;38.948;2023-12-20T00:36:00;8.71;87.06
64833;HTU21D;51290;45.060;38.948;2023-12-20T00:38:26;8.76;86.99
64833;HTU21D;51290;45.060;38.948;2023-12-20T00:40:52;8.79;86.89
64833;HTU21D;51290;45.060;38.948;2023-12-20T00:43:18;8.85;86.77
64833;HTU21D;51290;45.060;38.948;2023-12-20T00:45:44;8.88;86.65
64833;HTU21D;51290;45.060;38.948;2023-12-20T00:48:10;8.93;86.51
64833;HTU21D;51290;45.060;38.948;2023-12-20T00:50:36;8.95;86.35
64833;HTU21D;51290;45.060;38.948;2023-12-20T00:53:02;9.01;86.19
64833;HTU21D;51290;45.060;38.948;2023-12-20T00:55:28;9.05;86.06
64833;HTU21D;51290;45.060;38.948;2023-12-20T00:57:54;9.09;85.92
64833;HTU21D;51290;45.060;38.948;2023-12-20T01:00:20;9.15;85.78
64833;HTU21D;51290;45.060;38.948;2023-12-20T01:02:47;9.21;85.61
64833;HTU21D;51290;45.060;38.948;2023-12-20T01:05:15;9.25;85.42
64833;HTU21D;51290;45.060;38.948;2023-12-20T01:07:41;9.29;85.22
64833;HTU21D;51290;45.060;38.948;2023-12-20T01:10:07;9.33;85.03
64833;HTU21D;51290;45.060;38.948;2023-12-20T01:12:33;9.35;84.87
64833;HTU21D;51290;45.060;38.948;2023-12-20T01:14:59;9.40;84.71
64833;HTU21D;51290;45.060;38.948;2023-12-20T01:17:25;9.40;84.52
64833;HTU21D;51290;45.060;38.948;2023-12-20T01:19:51;9.44;84.28
64833;HTU21D;51290;45.060;38.948;2023-12-20T01:22:17;9.45;84.05
64833;HTU21D;51290;45.060;38.948;2023-12-20T01:24:43;9.49;83.85
64833;HTU21D;51290;45.060;38.948;2023-12-20T01:27:09;9.50;83.68
64833;HTU21D;51290;45.060;38.948;2023-12-20T01:29:35;9.53;83.59
64833;HTU21D;51290;45.060;38.948;2023-12-20T01:32:01;9.56;83.48
64833;HTU21D;51290;45.060;38.948;2023-12-20T01:34:27;9.59;83.35
64833;HTU21D;51290;45.060;38.948;2023-12-20T01:36:53;9.60;83.19
64833;HTU21D;51290;45.060;38.948;2023-12-20T01:39:19;9.62;83.03
64833;HTU21D;51290;45.060;38.948;2023-12-20T01:41:44;9.64;82.95
64833;HTU21D;51290;45.060;38.948;2023-12-20T01:44:11;9.65;82.87
64833;HTU21D;51290;45.060;38.948;2023-12-20T01:46:37;9.66;82.71
64833;HTU21D;51290;45.060;38.948;2023-12-20T01:49:03;9.68;82.49
64833;HTU21D;51290;45.060;38.948;2023-12-20T01:51:30;9.70;82.33
64833;HTU21D;51290;45.060;38.948;2023-12-20T01:53:58;9.72;82.23
64833;HTU21D;51290;45.060;38.948;2023-12-20T01:56:26;9.75;82.01
64833;HTU21D;51290;45.060;38.948;2023-12-20T01:58:53;9.77;81.86
64833;HTU21D;51290;45.060;38.948;2023-12-20T02:01:20;9.79;81.63
64833;HTU21D;51290;45.060;38.948;2023-12-20T02:03:46;9.79;81.50
64833;HTU21D;51290;45.060;38.948;2023-12-20T02:06:12;9.80;81.39
64833;HTU21D;51290;45.060;38.948;2023-12-20T02:08:38;9.80;81.32
64833;HTU21D;51290;45.060;38.948;2023-12-20T02:11:04;9.79;81.25
64833;HTU21D;51290;45.060;38.948;2023-12-20T02:13:30;9.81;81.17
64833;HTU21D;51290;45.060;38.948;2023-12-20T02:15:56;9.81;81.06
64833;HTU21D;51290;45.060;38.948;2023-12-20T02:18:22;9.81;81.05
64833;HTU21D;51290;45.060;38.948;2023-12-20T02:20:49;9.82;80.95
64833;HTU21D;51290;45.060;38.948;2023-12-20T02:23:14;9.83;80.87
64833;HTU21D;51290;45.060;38.948;2023-12-20T02:25:41;9.82;80.75
64833;HTU21D;51290;45.060;38.948;2023-12-20T02:28:07;9.82;80.75
64833;HTU21D;51290;45.060;38.948;2023-12-20T02:30:33;9.82;80.65
64833;HTU21D;51290;45.060;38.948;2023-12-20T02:33:00;9.83;80.53
64833;HTU21D;51290;45.060;38.948;2023-12-20T02:35:26;9.83;80.49
64833;HTU21D;51290;45.060;38.948;2023-12-20T02:37:52;9.83;80.46
64833;HTU21D;51290;45.060;38.948;2023-12-20T02:40:18;9.81;80.40
64833;HTU21D;51290;45.060;38.948;2023-12-20T02:42:44;9.79;80.37
64833;HTU21D;51290;45.060;38.948;2023-12-20T02:45:10;9.77;80.42
64833;HTU21D;51290;45.060;38.948;2023-12-20T02:47:36;9.77;80.38
64833;HTU21D;51290;45.060;38.948;2023-12-20T02:50:02;9.77;80.33
64833;HTU21D;51290;45.060;38.948;2023-12-20T02:52:29;9.76;80.24
64833;HTU21D;51290;45.060;38.948;2023-12-20T02:54:55;9.71;80.21
64833;HTU21D;51290;45.060;38.948;2023-12-20T02:57:20;9.67;80.22
64833;HTU21D;51290;45.060;38.948;2023-12-20T02:59:46;9.63;80.20
64833;HTU21D;51290;45.060;38.948;2023-12-20T03:02:12;9.56;80.18
64833;HTU21D;51290;45.060;38.948;2023-12-20T03:04:38;9.48;80.12
64833;HTU21D;51290;45.060;38.948;2023-12-20T03:07:04;9.40;80.10
64833;HTU21D;51290;45.060;38.948;2023-12-20T03:09:30;9.33;80.15
64833;HTU21D;51290;45.060;38.948;2023-12-20T03:11:56;9.24;80.20
64833;HTU21D;51290;45.060;38.948;2023-12-20T03:14:22;9.16;80.27
64833;HTU21D;51290;45.060;38.948;2023-12-20T03:16:51;9.08;80.33
64833;HTU21D;51290;45.060;38.948;2023-12-20T03:19:17;9.02;80.41
64833;HTU21D;51290;45.060;38.948;2023-12-20T03:21:44;8.93;80.50
64833;HTU21D;51290;45.060;38.948;2023-12-20T03:24:10;8.86;80.61
64833;HTU21D;51290;45.060;38.948;2023-12-20T03:26:36;8.81;80.72
64833;HTU21D;51290;45.060;38.948;2023-12-20T03:29:02;8.75;80.75
64833;HTU21D;51290;45.060;38.948;2023-12-20T03:31:28;8.68;80.85
64833;HTU21D;51290;45.060;38.948;2023-12-20T03:33:54;8.64;80.94
64833;HTU21D;51290;45.060;38.948;2023-12-20T03:36:20;8.59;80.95
64833;HTU21D;51290;45.060;38.948;2023-12-20T03:38:46;8.52;81.04
64833;HTU21D;51290;45.060;38.948;2023-12-20T03:41:12;8.47;81.10
64833;HTU21D;51290;45.060;38.948;2023-12-20T03:43:38;8.43;81.19
64833;HTU21D;51290;45.060;38.948;2023-12-20T03:46:05;8.39;81.28
64833;HTU21D;51290;45.060;38.948;2023-12-20T03:48:31;8.36;81.36
64833;HTU21D;51290;45.060;38.948;2023-12-20T03:50:57;8.34;81.39
64833;HTU21D;51290;45.060;38.948;2023-12-20T03:53:23;8.29;81.45
64833;HTU21D;51290;45.060;38.948;2023-12-20T03:55:49;8.27;81.48
64833;HTU21D;51290;45.060;38.948;2023-12-20T03:58:15;8.22;81.49
64833;HTU21D;51290;45.060;38.948;2023-12-20T04:00:41;8.19;81.53
64833;HTU21D;51290;45.060;38.948;2023-12-20T04:03:07;8.17;81.61
64833;HTU21D;51290;45.060;38.948;2023-12-20T04:05:33;8.13;81.66
64833;HTU21D;51290;45.060;38.948;2023-12-20T04:08:01;8.11;81.73
64833;HTU21D;51290;45.060;38.948;2023-12-20T04:10:27;8.09;81.77
64833;HTU21D;51290;45.060;38.948;2023-12-20T04:12:53;8.06;81.84
64833;HTU21D;51290;45.060;38.948;2023-12-20T04:15:20;8.05;81.88
64833;HTU21D;51290;45.060;38.948;2023-12-20T04:17:47;8.04;81.90
64833;HTU21D;51290;45.060;38.948;2023-12-20T04:20:13;8.03;81.92
64833;HTU21D;51290;45.060;38.948;2023-12-20T04:22:39;8.02;81.92
64833;HTU21D;51290;45.060;38.948;2023-12-20T04:25:05;7.98;81.92
64833;HTU21D;51290;45.060;38.948;2023-12-20T04:27:31;7.96;81.97
64833;HTU21D;51290;45.060;38.948;2023-12-20T04:29:57;7.93;82.00
64833;HTU21D;51290;45.060;38.948;2023-12-20T04:32:23;7.92;82.03
64833;HTU21D;51290;45.060;38.948;2023-12-20T04:34:49;7.90;82.09
64833;HTU21D;51290;45.060;38.948;2023-12-20T04:37:15;7.90;82.13
64833;HTU21D;51290;45.060;38.948;2023-12-20T04:39:40;7.88;82.17
64833;HTU21D;51290;45.060;38.948;2023-12-20T04:42:07;7.88;82.18
64833;HTU21D;51290;45.060;38.948;2023-12-20T04:44:33;7.87;82.20
64833;HTU21D;51290;45.060;38.948;2023-12-20T04:46:59;7.85;82.21
64833;HTU21D;51290;45.060;38.948;2023-12-20T04:49:25;7.84;82.19
64833;HTU21D;51290;45.060;38.948;2023-12-20T04:51:51;7.81;82.21
64833;HTU21D;51290;45.060;38.948;2023-12-20T04:54:17;7.78;82.27
64833;HTU21D;51290;45.060;38.948;2023-12-20T04:56:43;7.77;82.29
64833;HTU21D;51290;45.060;38.948;2023-12-20T04:59:09;7.74;82.31
64833;HTU21D;51290;45.060;38.948;2023-12-20T05:01:35;7.72;82.36
64833;HTU21D;51290;45.060;38.948;2023-12-20T05:04:01;7.73;82.48
64833;HTU21D;51290;45.060;38.948;2023-12-20T05:06:27;7.74;82.58
64833;HTU21D;51290;45.060;38.948;2023-12-20T05:08:53;7.75;82.63
64833;HTU21D;51290;45.060;38.948;2023-12-20T05:11:19;7.77;82.59
64833;HTU21D;51290;45.060;38.948;2023-12-20T05:13:45;7.76;82.58
64833;HTU21D;51290;45.060;38.948;2023-12-20T05:16:11;7.78;82.62
64833;HTU21D;51290;45.060;38.948;2023-12-20T05:18:39;7.76;82.60
64833;HTU21D;51290;45.060;38.948;2023-12-20T05:21:05;7.78;82.58
64833;HTU21D;51290;45.060;38.948;2023-12-20T05:23:32;7.77;82.61
64833;HTU21D;51290;45.060;38.948;2023-12-20T05:25:58;7.79;82.67
64833;HTU21D;51290;45.060;38.948;2023-12-20T05:28:24;7.83;82.81
64833;HTU21D;51290;45.060;38.948;2023-12-20T05:30:51;7.89;82.88
64833;HTU21D;51290;45.060;38.948;2023-12-20T05:33:17;7.93;82.85
64833;HTU21D;51290;45.060;38.948;2023-12-20T05:35:43;7.96;82.79
64833;HTU21D;51290;45.060;38.948;2023-12-20T05:38:10;8.00;82.75
64833;HTU21D;51290;45.060;38.948;2023-12-20T05:40:36;8.04;82.81
64833;HTU21D;51290;45.060;38.948;2023-12-20T05:43:02;8.14;82.91
64833;HTU21D;51290;45.060;38.948;2023-12-20T05:45:28;8.26;82.94
64833;HTU21D;51290;45.060;38.948;2023-12-20T05:47:55;8.37;82.81
64833;HTU21D;51290;45.060;38.948;2023-12-20T05:50:21;8.44;82.63
64833;HTU21D;51290;45.060;38.948;2023-12-20T05:52:47;8.47;82.50
64833;HTU21D;51290;45.060;38.948;2023-12-20T05:55:13;8.49;82.39
64833;HTU21D;51290;45.060;38.948;2023-12-20T05:57:39;8.50;82.29
64833;HTU21D;51290;45.060;38.948;2023-12-20T06:00:05;8.52;82.26
64833;HTU21D;51290;45.060;38.948;2023-12-20T06:02:37;8.53;82.22
64833;HTU21D;51290;45.060;38.948;2023-12-20T06:05:06;8.53;82.16
64833;HTU21D;51290;45.060;38.948;2023-12-20T06:07:33;8.53;82.10
64833;HTU21D;51290;45.060;38.948;2023-12-20T06:09:59;8.53;82.07
64833;HTU21D;51290;45.060;38.948;2023-12-20T06:12:25;8.52;82.07
64833;HTU21D;51290;45.060;38.948;2023-12-20T06:14:53;8.52;82.10
64833;HTU21D;51290;45.060;38.948;2023-12-20T06:17:19;8.55;82.11
64833;HTU21D;51290;45.060;38.948;2023-12-20T06:19:45;8.57;82.10
64833;HTU21D;51290;45.060;38.948;2023-12-20T06:22:16;8.59;82.05
64833;HTU21D;51290;45.060;38.948;2023-12-20T06:24:42;8.61;82.02
64833;HTU21D;51290;45.060;38.948;2023-12-20T06:27:08;8.64;81.97
64833;HTU21D;51290;45.060;38.948;2023-12-20T06:29:34;8.67;81.97
64833;HTU21D;51290;45.060;38.948;2023-12-20T06:32:00;8.73;82.04
64833;HTU21D;51290;45.060;38.948;2023-12-20T06:34:26;8.78;82.06
64833;HTU21D;51290;45.060;38.948;2023-12-20T06:36:52;8.83;81.96
64833;HTU21D;51290;45.060;38.948;2023-12-20T06:39:18;8.86;81.84
64833;HTU21D;51290;45.060;38.948;2023-12-20T06:41:44;8.89;81.82
64833;HTU21D;51290;45.060;38.948;2023-12-20T06:44:10;8.93;81.84
64833;HTU21D;51290;45.060;38.948;2023-12-20T06:46:36;8.98;81.81
64833;HTU21D;51290;45.060;38.948;2023-12-20T06:49:02;9.02;81.72
64833;HTU21D;51290;45.060;38.948;2023-12-20T06:51:28;9.05;81.67
64833;HTU21D;51290;45.060;38.948;2023-12-20T06:53:54;9.10;81.65
64833;HTU21D;51290;45.060;38.948;2023-12-20T06:56:20;9.16;81.71
64833;HTU21D;51290;45.060;38.948;2023-12-20T06:58:46;9.23;81.75
64833;HTU21D;51290;45.060;38.948;2023-12-20T07:01:13;9.32;81.77
64833;HTU21D;51290;45.060;38.948;2023-12-20T07:03:39;9.40;81.78
64833;HTU21D;51290;45.060;38.948;2023-12-20T07:06:06;9.52;81.78
64833;HTU21D;51290;45.060;38.948;2023-12-20T07:08:32;9.60;81.76
64833;HTU21D;51290;45.060;38.948;2023-12-20T07:10:58;9.70;81.72
64833;HTU21D;51290;45.060;38.948;2023-12-20T07:13:24;9.83;81.65
64833;HTU21D;51290;45.060;38.948;2023-12-20T07:15:50;9.94;81.49
64833;HTU21D;51290;45.060;38.948;2023-12-20T07:18:16;10.05;81.35
64833;HTU21D;51290;45.060;38.948;2023-12-20T07:20:42;10.18;81.20
64833;HTU21D;51290;45.060;38.948;2023-12-20T07:23:09;10.26;81.00
64833;HTU21D;51290;45.060;38.948;2023-12-20T07:25:34;10.34;80.73
64833;HTU21D;51290;45.060;38.948;2023-12-20T07:28:00;10.39;80.57
64833;HTU21D;51290;45.060;38.948;2023-12-20T07:30:26;10.44;80.49
64833;HTU21D;51290;45.060;38.948;2023-12-20T07:32:52;10.50;80.46
64833;HTU21D;51290;45.060;38.948;2023-12-20T07:35:18;10.59;80.40
64833;HTU21D;51290;45.060;38.948;2023-12-20T07:37:44;10.67;80.31
64833;HTU21D;51290;45.060;38.948;2023-12-20T07:40:10;10.74;80.18
64833;HTU21D;51290;45.060;38.948;2023-12-20T07:42:36;10.83;80.13
64833;HTU21D;51290;45.060;38.948;2023-12-20T07:45:03;10.92;80.08
64833;HTU21D;51290;45.060;38.948;2023-12-20T07:47:29;10.99;79.99
64833;HTU21D;51290;45.060;38.948;2023-12-20T07:49:56;11.05;79.81
64833;HTU21D;51290;45.060;38.948;2023-12-20T07:52:23;11.13;79.57
64833;HTU21D;51290;45.060;38.948;2023-12-20T07:54:49;11.18;79.31
64833;HTU21D;51290;45.060;38.948;2023-12-20T07:57:15;11.22;78.98
64833;HTU21D;51290;45.060;38.948;2023-12-20T07:59:41;11.24;78.88
64833;HTU21D;51290;45.060;38.948;2023-12-20T08:02:06;11.28;78.83
64833;HTU21D;51290;45.060;38.948;2023-12-20T08:04:32;11.30;78.76
64833;HTU21D;51290;45.060;38.948;2023-12-20T08:06:58;11.33;78.59
64833;HTU21D;51290;45.060;38.948;2023-12-20T08:09:25;11.36;78.60
64833;HTU21D;51290;45.060;38.948;2023-12-20T08:11:51;11.41;78.58
64833;HTU21D;51290;45.060;38.948;2023-12-20T08:14:17;11.44;78.52
64833;HTU21D;51290;45.060;38.948;2023-12-20T08:16:43;11.46;78.44
64833;HTU21D;51290;45.060;38.948;2023-12-20T08:19:09;11.49;78.27
64833;HTU21D;51290;45.060;38.948;2023-12-20T08:21:35;11.54;78.13
64833;HTU21D;51290;45.060;38.948;2023-12-20T08:24:01;11.60;78.03
64833;HTU21D;51290;45.060;38.948;2023-12-20T08:26:27;11.73;77.99
64833;HTU21D;51290;45.060;38.948;2023-12-20T08:28:53;11.87;77.88
64833;HTU21D;51290;45.060;38.948;2023-12-20T08:31:19;12.01;77.47
64833;HTU21D;51290;45.060;38.948;2023-12-20T08:33:47;12.13;76.97
64833;HTU21D;51290;45.060;38.948;2023-12-20T08:36:13;12.22;76.70
64833;HTU21D;51290;45.060;38.948;2023-12-20T08:38:40;12.29;76.21
64833;HTU21D;51290;45.060;38.948;2023-12-20T08:41:06;12.33;75.90
64833;HTU21D;51290;45.060;38.948;2023-12-20T08:43:34;12.37;75.64
64833;HTU21D;51290;45.060;38.948;2023-12-20T08:46:00;12.43;75.47
64833;HTU21D;51290;45.060;38.948;2023-12-20T08:48:29;12.47;75.31
64833;HTU21D;51290;45.060;38.948;2023-12-20T08:50:55;12.51;74.98
64833;HTU21D;51290;45.060;38.948;2023-12-20T08:53:21;12.55;74.65
64833;HTU21D;51290;45.060;38.948;2023-12-20T08:55:47;12.56;74.60
64833;HTU21D;51290;45.060;38.948;2023-12-20T08:58:13;12.59;74.35
64833;HTU21D;51290;45.060;38.948;2023-12-20T09:00:40;12.63;74.18
64833;HTU21D;51290;45.060;38.948;2023-12-20T09:03:05;12.69;73.95
64833;HTU21D;51290;45.060;38.948;2023-12-20T09:05:31;12.73;73.93
64833;HTU21D;51290;45.060;38.948;2023-12-20T09:07:57;12.78;73.76
64833;HTU21D;51290;45.060;38.948;2023-12-20T09:10:23;12.86;73.33
64833;HTU21D;51290;45.060;38.948;2023-12-20T09:12:50;12.90;72.96
64833;HTU21D;51290;45.060;38.948;2023-12-20T09:15:16;12.95;72.58
64833;HTU21D;51290;45.060;38.948;2023-12-20T09:17:42;12.99;72.44
64833;HTU21D;51290;45.060;38.948;2023-12-20T09:20:09;13.01;72.26
64833;HTU21D;51290;45.060;38.948;2023-12-20T09:22:36;13.03;71.91
64833;HTU21D;51290;45.060;38.948;2023-12-20T09:25:04;13.02;71.74
64833;HTU21D;51290;45.060;38.948;2023-12-20T09:27:30;13.00;71.81
64833;HTU21D;51290;45.060;38.948;2023-12-20T09:29:56;13.02;71.74
64833;HTU21D;51290;45.060;38.948;2023-12-20T09:32:22;13.05;71.60
64833;HTU21D;51290;45.060;38.948;2023-12-20T09:34:48;13.09;71.11
64833;HTU21D;51290;45.060;38.948;2023-12-20T09:37:14;13.11;71.00
64833;HTU21D;51290;45.060;38.948;2023-12-20T09:39:40;13.15;71.16
64833;HTU21D;51290;45.060;38.948;2023-12-20T09:42:07;13.19;71.02
64833;HTU21D;51290;45.060;38.948;2023-12-20T09:44:33;13.23;70.27
64833;HTU21D;51290;45.060;38.948;2023-12-20T09:47:03;13.26;69.80
64833;HTU21D;51290;45.060;38.948;2023-12-20T09:49:31;13.29;69.63
64833;HTU21D;51290;45.060;38.948;2023-12-20T09:52:00;13.34;69.61
64833;HTU21D;51290;45.060;38.948;2023-12-20T09:54:28;13.38;69.23
64833;HTU21D;51290;45.060;38.948;2023-12-20T09:56:54;13.37;69.09
64833;HTU21D;51290;45.060;38.948;2023-12-20T09:59:20;13.34;68.94
64833;HTU21D;51290;45.060;38.948;2023-12-20T10:01:46;13.33;69.01
64833;HTU21D;51290;45.060;38.948;2023-12-20T10:04:13;13.30;68.55
64833;HTU21D;51290;45.060;38.948;2023-12-20T10:06:40;13.24;68.54
64833;HTU21D;51290;45.060;38.948;2023-12-20T10:09:06;13.17;68.47
64833;HTU21D;51290;45.060;38.948;2023-12-20T10:11:32;13.12;68.66
64833;HTU21D;51290;45.060;38.948;2023-12-20T10:14:00;13.08;68.96
64833;HTU21D;51290;45.060;38.948;2023-12-20T10:16:30;13.09;68.94
64833;HTU21D;51290;45.060;38.948;2023-12-20T10:18:56;13.10;68.71
64833;HTU21D;51290;45.060;38.948;2023-12-20T10:21:23;13.07;68.55
64833;HTU21D;51290;45.060;38.948;2023-12-20T10:23:53;13.01;68.46
64833;HTU21D;51290;45.060;38.948;2023-12-20T10:26:20;12.92;68.49
64833;HTU21D;51290;45.060;38.948;2023-12-20T10:28:56;12.87;68.49
64833;HTU21D;51290;45.060;38.948;2023-12-20T10:31:31;12.84;68.72
64833;HTU21D;51290;45.060;38.948;2023-12-20T10:33:58;12.77;68.26
64833;HTU21D;51290;45.060;38.948;2023-12-20T10:36:29;12.72;68.05
64833;HTU21D;51290;45.060;38.948;2023-12-20T10:38:56;12.70;68.24
64833;HTU21D;51290;45.060;38.948;2023-12-20T10:41:31;12.66;67.65
64833;HTU21D;51290;45.060;38.948;2023-12-20T10:44:04;12.65;67.58
64833;HTU21D;51290;45.060;38.948;2023-12-20T10:46:34;12.65;67.61
64833;HTU21D;51290;45.060;38.948;2023-12-20T10:49:05;12.63;67.75
64833;HTU21D;51290;45.060;38.948;2023-12-20T10:51:31;12.62;67.90
64833;HTU21D;51290;45.060;38.948;2023-12-20T10:53:57;12.61;67.92
64833;HTU21D;51290;45.060;38.948;2023-12-20T10:56:23;12.61;68.10
64833;HTU21D;51290;45.060;38.948;2023-12-20T10:58:50;12.60;68.09
64833;HTU21D;51290;45.060;38.948;2023-12-20T11:01:17;12.60;68.16
64833;HTU21D;51290;45.060;38.948;2023-12-20T11:03:51;12.62;68.28
64833;HTU21D;51290;45.060;38.948;2023-12-20T11:06:46;12.63;68.41
64833;HTU21D;51290;45.060;38.948;2023-12-20T11:09:20;12.63;68.28
64833;HTU21D;51290;45.060;38.948;2023-12-20T11:12:13;12.63;68.34
64833;HTU21D;51290;45.060;38.948;2023-12-20T11:14:53;12.62;68.12
64833;HTU21D;51290;45.060;38.948;2023-12-20T11:17:21;12.64;68.30
64833;HTU21D;51290;45.060;38.948;2023-12-20T11:22:26;12.63;68.42
64833;HTU21D;51290;45.060;38.948;2023-12-20T11:24:53;12.64;68.33
64833;HTU21D;51290;45.060;38.948;2023-12-20T11:27:22;12.65;68.36
64833;HTU21D;51290;45.060;38.948;2023-12-20T11:29:54;12.65;68.49
64833;HTU21D;51290;45.060;38.948;2023-12-20T11:35:38;12.65;68.71
64833;HTU21D;51290;45.060;38.948;2023-12-20T11:37:46;12.66;68.87
64833;HTU21D;51290;45.060;38.948;2023-12-20T11:40:16;12.67;68.93
64833;HTU21D;51290;45.060;38.948;2023-12-20T11:42:44;12.66;68.86
64833;HTU21D;51290;45.060;38.948;2023-12-20T11:45:15;12.67;68.86
64833;HTU21D;51290;45.060;38.948;2023-12-20T11:47:46;12.65;68.81
64833;HTU21D;51290;45.060;38.948;2023-12-20T11:50:12;12.66;68.87
64833;HTU21D;51290;45.060;38.948;2023-12-20T11:52:38;12.66;68.71
64833;HTU21D;51290;45.060;38.948;2023-12-20T11:55:05;12.67;68.55
64833;HTU21D;51290;45.060;38.948;2023-12-20T11:57:32;12.67;68.26
64833;HTU21D;51290;45.060;38.948;2023-12-20T11:59:58;12.66;68.19
64833;HTU21D;51290;45.060;38.948;2023-12-20T12:02:24;12.67;67.82
64833;HTU21D;51290;45.060;38.948;2023-12-20T12:04:50;12.66;67.46
64833;HTU21D;51290;45.060;38.948;2023-12-20T12:07:16;12.66;67.17
64833;HTU21D;51290;45.060;38.948;2023-12-20T12:09:43;12.67;67.19
64833;HTU21D;51290;45.060;38.948;2023-12-20T12:12:10;12.69;67.28
64833;HTU21D;51290;45.060;38.948;2023-12-20T12:14:37;12.69;66.81
64833;HTU21D;51290;45.060;38.948;2023-12-20T12:17:04;12.69;66.15
64833;HTU21D;51290;45.060;38.948;2023-12-20T12:19:30;12.69;66.03
64833;HTU21D;51290;45.060;38.948;2023-12-20T12:22:05;12.67;65.97
64833;HTU21D;51290;45.060;38.948;2023-12-20T12:24:43;12.69;66.07
64833;HTU21D;51290;45.060;38.948;2023-12-20T12:27:10;12.69;66.01
64833;HTU21D;51290;45.060;38.948;2023-12-20T12:29:36;12.69;65.69
64833;HTU21D;51290;45.060;38.948;2023-12-20T12:32:09;12.66;65.56
64833;HTU21D;51290;45.060;38.948;2023-12-20T12:34:36;12.64;65.52
64833;HTU21D;51290;45.060;38.948;2023-12-20T12:37:04;12.61;65.24
64833;HTU21D;51290;45.060;38.948;2023-12-20T12:39:30;12.59;65.30
64833;HTU21D;51290;45.060;38.948;2023-12-20T12:41:56;12.55;65.30
64833;HTU21D;51290;45.060;38.948;2023-12-20T12:44:23;12.51;65.27
64833;HTU21D;51290;45.060;38.948;2023-12-20T12:46:52;12.50;65.41
64833;HTU21D;51290;45.060;38.948;2023-12-20T12:49:20;12.44;65.22
64833;HTU21D;51290;45.060;38.948;2023-12-20T12:51:47;12.42;65.21
64833;HTU21D;51290;45.060;38.948;2023-12-20T12:54:13;12.38;65.27
64833;HTU21D;51290;45.060;38.948;2023-12-20T12:56:42;12.35;65.33
64833;HTU21D;51290;45.060;38.948;2023-12-20T12:59:08;12.31;65.44
64833;HTU21D;51290;45.060;38.948;2023-12-20T13:01:34;12.27;65.55
64833;HTU21D;51290;45.060;38.948;2023-12-20T13:04:00;12.23;65.55
64833;HTU21D;51290;45.060;38.948;2023-12-20T13:06:29;12.18;65.53
64833;HTU21D;51290;45.060;38.948;2023-12-20T13:08:55;12.15;65.61
64833;HTU21D;51290;45.060;38.948;2023-12-20T13:11:21;12.11;65.62
64833;HTU21D;51290;45.060;38.948;2023-12-20T13:13:47;12.06;65.71
64833;HTU21D;51290;45.060;38.948;2023-12-20T13:16:13;12.01;65.82
64833;HTU21D;51290;45.060;38.948;2023-12-20T13:18:39;11.96;65.87
64833;HTU21D;51290;45.060;38.948;2023-12-20T13:21:08;11.91;65.97
64833;HTU21D;51290;45.060;38.948;2023-12-20T13:23:34;11.87;66.09
64833;HTU21D;51290;45.060;38.948;2023-12-20T13:26:01;11.82;66.17
64833;HTU21D;51290;45.060;38.948;2023-12-20T13:28:28;11.75;66.29
64833;HTU21D;51290;45.060;38.948;2023-12-20T13:30:54;11.71;66.40
64833;HTU21D;51290;45.060;38.948;2023-12-20T13:33:20;11.67;66.49
64833;HTU21D;51290;45.060;38.948;2023-12-20T13:35:46;11.61;66.64
64833;HTU21D;51290;45.060;38.948;2023-12-20T13:38:13;11.55;66.73
64833;HTU21D;51290;45.060;38.948;2023-12-20T13:40:39;11.47;66.86
64833;HTU21D;51290;45.060;38.948;2023-12-20T13:43:05;11.40;66.98
64833;HTU21D;51290;45.060;38.948;2023-12-20T13:45:31;11.32;67.10
64833;HTU21D;51290;45.060;38.948;2023-12-20T13:47:58;11.24;67.29
64833;HTU21D;51290;45.060;38.948;2023-12-20T13:50:25;11.16;67.43
64833;HTU21D;51290;45.060;38.948;2023-12-20T13:52:51;11.08;67.58
64833;HTU21D;51290;45.060;38.948;2023-12-20T13:55:17;11.02;67.72
64833;HTU21D;51290;45.060;38.948;2023-12-20T13:57:46;10.95;67.83
64833;HTU21D;51290;45.060;38.948;2023-12-20T14:00:14;10.89;67.95
64833;HTU21D;51290;45.060;38.948;2023-12-20T14:02:41;10.83;68.10
64833;HTU21D;51290;45.060;38.948;2023-12-20T14:05:10;10.79;68.21
64833;HTU21D;51290;45.060;38.948;2023-12-20T14:07:36;10.71;68.29
64833;HTU21D;51290;45.060;38.948;2023-12-20T14:10:03;10.65;68.38
64833;HTU21D;51290;45.060;38.948;2023-12-20T14:12:29;10.55;68.58
64833;HTU21D;51290;45.060;38.948;2023-12-20T14:14:55;10.49;68.79
64833;HTU21D;51290;45.060;38.948;2023-12-20T14:17:22;10.42;68.95
64833;HTU21D;51290;45.060;38.948;2023-12-20T14:19:48;10.38;69.13
64833;HTU21D;51290;45.060;38.948;2023-12-20T14:22:14;10.30;69.22
64833;HTU21D;51290;45.060;38.948;2023-12-20T14:24:42;10.24;69.33
64833;HTU21D;51290;45.060;38.948;2023-12-20T14:27:08;10.16;69.58
64833;HTU21D;51290;45.060;38.948;2023-12-20T14:29:35;10.13;69.84
64833;HTU21D;51290;45.060;38.948;2023-12-20T14:32:02;10.11;69.99
64833;HTU21D;51290;45.060;38.948;2023-12-20T14:34:29;10.07;70.00
64833;HTU21D;51290;45.060;38.948;2023-12-20T14:36:55;10.00;70.06
64833;HTU21D;51290;45.060;38.948;2023-12-20T14:39:21;9.95;70.14
64833;HTU21D;51290;45.060;38.948;2023-12-20T14:41:48;9.89;70.24
64833;HTU21D;51290;45.060;38.948;2023-12-20T14:44:14;9.83;70.38
64833;HTU21D;51290;45.060;38.948;2023-12-20T14:46:40;9.76;70.49
64833;HTU21D;51290;45.060;38.948;2023-12-20T14:49:08;9.71;70.61
64833;HTU21D;51290;45.060;38.948;2023-12-20T14:51:35;9.64;70.70
64833;HTU21D;51290;45.060;38.948;2023-12-20T14:54:02;9.57;70.83
64833;HTU21D;51290;45.060;38.948;2023-12-20T14:56:28;9.52;70.95
64833;HTU21D;51290;45.060;38.948;2023-12-20T14:58:54;9.45;71.20
64833;HTU21D;51290;45.060;38.948;2023-12-20T15:01:20;9.42;71.47
64833;HTU21D;51290;45.060;38.948;2023-12-20T15:03:47;9.44;71.68
64833;HTU21D;51290;45.060;38.948;2023-12-20T15:06:14;9.46;71.74
64833;HTU21D;51290;45.060;38.948;2023-12-20T15:08:40;9.49;71.74
64833;HTU21D;51290;45.060;38.948;2023-12-20T15:11:07;9.51;71.61
64833;HTU21D;51290;45.060;38.948;2023-12-20T15:13:33;9.49;71.49